createdAt,value
2018-06-22T05:26:02.182Z,861.74
2018-06-22T05:27:01.204Z,861.76
2018-06-22T05:28:54.862Z,861.79
2018-06-22T05:29:54.859Z,861.84
2018-06-22T05:31:48.697Z,861.77
2018-06-22T05:32:48.168Z,861.82
2018-06-22T05:34:41.041Z,861.75
2018-06-22T05:35:40.702Z,861.76
2018-06-22T05:37:34.210Z,861.74
2018-06-22T05:38:34.024Z,861.72
2018-06-22T05:40:27.709Z,861.67
2018-06-22T05:41:27.736Z,861.71
2018-06-22T05:43:21.246Z,861.71
2018-06-22T05:44:21.059Z,861.69
2018-06-22T05:46:14.410Z,861.68
2018-06-22T05:47:14.403Z,861.67
2018-06-22T05:49:07.979Z,861.64
2018-06-22T05:50:07.390Z,861.65
2018-06-22T05:52:00.758Z,861.59
2018-06-22T05:53:00.744Z,861.57
2018-06-22T05:54:54.643Z,861.60
2018-06-22T05:57:26.493Z,861.58
2018-06-22T05:58:26.486Z,861.60
2018-06-22T06:00:20.066Z,861.57
2018-06-22T06:01:19.830Z,861.57
2018-06-22T06:03:12.922Z,861.59
2018-06-22T06:04:12.839Z,861.59
2018-06-22T06:06:06.210Z,861.58
2018-06-22T06:07:06.020Z,861.55
2018-06-22T06:08:59.057Z,861.59
2018-06-22T06:09:59.055Z,861.54
2018-06-22T06:11:53.566Z,861.52
2018-06-22T06:12:52.383Z,861.49
2018-06-22T06:14:46.072Z,861.52
2018-06-22T06:15:45.742Z,861.53
2018-06-22T06:17:39.630Z,861.49
2018-06-22T06:18:39.095Z,861.45
2018-06-22T06:20:32.793Z,861.49
2018-06-22T06:21:32.496Z,861.52
2018-06-22T06:23:26.104Z,861.49
2018-06-22T06:24:26.126Z,861.47
2018-06-22T06:26:19.483Z,861.43
2018-06-22T06:27:19.197Z,861.40
2018-06-22T06:29:12.700Z,861.45
2018-06-22T06:30:12.832Z,861.43
2018-06-22T06:32:05.853Z,861.41
2018-06-22T06:33:05.847Z,861.38
2018-06-22T06:34:59.800Z,861.43
2018-06-22T06:35:59.225Z,861.42
2018-06-22T06:37:52.579Z,861.35
2018-06-22T06:38:52.880Z,861.34
2018-06-22T06:40:46.187Z,861.31
2018-06-22T06:41:46.256Z,861.37
2018-06-22T06:43:39.593Z,861.35
2018-06-22T06:44:39.590Z,861.31
2018-06-22T06:46:33.175Z,861.34
2018-06-22T06:47:32.938Z,861.31
2018-06-22T06:49:25.955Z,861.33
2018-06-22T06:50:26.300Z,861.24
2018-06-22T06:52:19.517Z,861.31
2018-06-22T06:53:19.670Z,861.34
2018-06-22T06:55:12.684Z,861.25
2018-06-22T06:56:12.698Z,861.24
2018-06-22T06:58:06.213Z,861.24
2018-06-22T06:59:06.019Z,861.27
2018-06-22T07:02:31.442Z,861.22
2018-06-22T07:03:31.425Z,861.27
2018-06-22T07:05:24.880Z,861.36
2018-06-22T07:06:24.294Z,861.31
2018-06-22T07:08:18.008Z,861.25
2018-06-22T07:09:17.972Z,861.28
2018-06-22T07:11:11.578Z,861.24
2018-06-22T07:12:10.990Z,861.19
2018-06-22T07:14:04.360Z,861.28
2018-06-22T07:15:04.666Z,861.25
2018-06-22T07:16:57.907Z,861.29
2018-06-22T07:17:57.703Z,861.26
2018-06-22T07:19:51.054Z,861.30
2018-06-22T07:20:51.379Z,861.32
2018-06-22T07:22:44.937Z,861.25
2018-06-22T07:23:44.407Z,861.25
2018-06-22T07:25:38.084Z,861.24
2018-06-22T07:26:37.715Z,861.20
2018-06-22T07:28:31.332Z,861.18
2018-06-22T07:29:31.090Z,861.24
2018-06-22T07:31:24.421Z,861.24
2018-06-22T07:32:24.752Z,861.26
2018-06-22T07:34:18.309Z,861.21
2018-06-22T07:35:18.107Z,861.22
2018-06-22T07:37:12.050Z,861.19
2018-06-22T07:39:43.417Z,861.19
2018-06-22T07:40:43.523Z,861.22
2018-06-22T07:42:36.877Z,861.20
2018-06-22T07:43:36.536Z,861.24
2018-06-22T07:45:30.106Z,861.16
2018-06-22T07:46:29.887Z,861.17
2018-06-22T07:48:24.172Z,861.10
2018-06-22T07:49:23.245Z,861.10
2018-06-22T07:51:16.818Z,861.14
2018-06-22T07:52:16.580Z,861.13
2018-06-22T07:54:09.455Z,861.09
2018-06-22T07:55:09.453Z,861.10
2018-06-22T07:57:03.315Z,861.14
2018-06-22T07:58:02.793Z,861.12
2018-06-22T07:59:56.488Z,861.12
2018-06-22T08:00:56.149Z,861.12
2018-06-22T08:02:50.035Z,861.09
2018-06-22T08:03:49.841Z,861.13
2018-06-22T08:05:43.200Z,861.12
2018-06-22T08:06:43.176Z,861.10
2018-06-22T08:08:36.745Z,861.12
2018-06-22T08:09:36.189Z,861.08
2018-06-22T08:11:29.413Z,861.09
2018-06-22T08:12:29.415Z,861.05
2018-06-22T08:14:23.224Z,861.06
2018-06-22T08:15:22.734Z,861.06
2018-06-22T08:17:15.819Z,861.04
2018-06-22T08:18:16.098Z,861.07
2018-06-22T08:20:09.707Z,861.06
2018-06-22T08:21:09.462Z,861.05
2018-06-22T08:23:02.816Z,861.08
2018-06-22T08:24:02.463Z,861.04
2018-06-22T08:25:56.641Z,861.04
2018-06-22T08:26:56.159Z,861.04
2018-06-22T08:28:49.493Z,860.99
2018-06-22T08:29:49.176Z,861.00
2018-06-22T08:31:42.743Z,860.97
2018-06-22T08:32:42.502Z,860.96
2018-06-22T08:34:36.212Z,860.94
2018-06-22T08:35:36.208Z,860.91
2018-06-22T08:37:29.469Z,860.93
2018-06-22T08:38:29.575Z,860.94
2018-06-22T08:40:22.928Z,860.98
2018-06-22T08:41:22.904Z,860.96
2018-06-22T08:43:16.256Z,860.93
2018-06-22T08:44:16.277Z,860.94
2018-06-22T08:46:09.879Z,860.95
2018-06-22T08:47:09.604Z,860.90
2018-06-22T08:49:02.874Z,860.91
2018-06-22T08:50:02.641Z,860.94
2018-06-22T08:51:56.312Z,860.94
2018-06-22T08:52:55.973Z,860.95
2018-06-22T08:54:50.141Z,861.00
2018-06-22T08:55:49.676Z,860.98
2018-06-22T08:57:43.016Z,860.95
2018-06-22T08:58:42.662Z,860.92
2018-06-22T09:00:36.226Z,860.89
2018-06-22T09:01:36.029Z,860.90
2018-06-22T09:03:29.705Z,860.88
2018-06-22T09:04:29.706Z,860.84
2018-06-22T09:06:22.930Z,860.82
2018-06-22T09:07:23.037Z,860.84
2018-06-22T09:09:16.085Z,860.83
2018-06-22T09:10:16.413Z,860.84
2018-06-22T09:12:09.684Z,860.85
2018-06-22T09:13:09.783Z,860.89
2018-06-22T09:15:02.790Z,860.91
2018-06-22T09:16:02.774Z,860.94
2018-06-22T09:17:56.353Z,860.95
2018-06-22T09:18:56.474Z,860.97
2018-06-22T09:20:49.812Z,860.99
2018-06-22T09:21:49.541Z,860.94
2018-06-22T09:23:43.944Z,860.89
2018-06-22T09:24:42.821Z,860.96
2018-06-22T09:26:36.503Z,860.98
2018-06-22T09:27:36.179Z,860.99
2018-06-22T09:29:29.745Z,861.01
2018-06-22T09:30:29.531Z,861.03
2018-06-22T09:32:22.880Z,860.99
2018-06-22T09:33:23.212Z,861.02
2018-06-22T09:35:16.768Z,861.03
2018-06-22T09:36:16.539Z,861.03
2018-06-22T09:38:09.905Z,861.08
2018-06-22T09:39:09.556Z,861.09
2018-06-22T09:41:03.462Z,861.03
2018-06-22T09:42:03.239Z,861.07
2018-06-22T09:43:56.595Z,861.10
2018-06-22T09:44:56.310Z,861.11
2018-06-22T09:46:49.808Z,861.14
2018-06-22T09:47:49.943Z,861.17
2018-06-22T09:49:42.979Z,861.19
2018-06-22T09:50:42.964Z,861.18
2018-06-22T09:52:36.553Z,861.20
2018-06-22T09:53:36.328Z,861.20
2018-06-22T09:55:29.661Z,861.24
2018-06-22T09:56:29.980Z,861.24
2018-06-22T09:58:23.192Z,861.19
2018-06-22T09:59:23.328Z,861.20
2018-06-22T10:01:16.714Z,861.19
2018-06-22T10:04:20.575Z,861.16
2018-06-22T10:05:10.263Z,861.11
2018-06-22T10:07:03.619Z,861.12
2018-06-22T10:08:03.621Z,861.18
2018-06-22T10:09:56.146Z,861.19
2018-06-22T10:10:55.952Z,861.25
2018-06-22T10:12:49.330Z,861.27
2018-06-22T10:13:49.298Z,861.32
2018-06-22T10:15:42.872Z,861.35
2018-06-22T10:16:42.644Z,861.38
2018-06-22T10:18:36.005Z,861.43
2018-06-22T10:19:36.000Z,861.49
2018-06-22T10:21:29.592Z,861.48
2018-06-22T10:22:29.330Z,861.49
2018-06-22T10:24:22.713Z,861.52
2018-06-22T10:25:22.693Z,861.49
2018-06-22T10:27:16.331Z,861.50
2018-06-22T10:28:16.061Z,861.53
2018-06-22T10:30:09.392Z,861.54
2018-06-22T10:31:09.392Z,861.51
2018-06-22T10:33:02.976Z,861.50
2018-06-22T10:34:02.811Z,861.57
2018-06-22T10:35:56.666Z,861.56
2018-06-22T10:36:56.080Z,861.57
2018-06-22T10:38:49.619Z,861.61
2018-06-22T10:39:49.427Z,861.65
2018-06-22T10:41:42.790Z,861.66
2018-06-22T10:42:42.797Z,861.66
2018-06-22T10:44:36.324Z,861.68
2018-06-22T10:45:36.146Z,861.68
2018-06-22T10:47:29.470Z,861.70
2018-06-22T10:48:29.460Z,861.72
2018-06-22T10:50:23.063Z,861.75
2018-06-22T10:51:22.811Z,861.76
2018-06-22T10:53:16.169Z,861.83
2018-06-22T10:54:16.187Z,861.82
2018-06-22T10:56:09.763Z,861.86
2018-06-22T10:57:09.533Z,861.87
2018-06-22T10:59:02.930Z,861.92
2018-06-22T11:00:03.006Z,861.93
2018-06-22T11:01:56.454Z,861.96
2018-06-22T11:02:56.228Z,861.98
2018-06-22T11:04:49.569Z,861.99
2018-06-22T11:05:49.619Z,861.98
2018-06-22T11:07:43.158Z,862.03
2018-06-22T11:08:42.936Z,862.05
2018-06-22T11:10:36.872Z,862.10
2018-06-22T11:11:36.273Z,862.11
2018-06-22T11:13:29.864Z,862.11
2018-06-22T11:14:29.628Z,862.09
2018-06-22T11:16:22.986Z,862.10
2018-06-22T11:17:23.011Z,862.14
2018-06-22T11:19:16.488Z,862.13
2018-06-22T11:20:16.308Z,862.19
2018-06-22T11:22:09.688Z,862.17
2018-06-22T11:23:09.688Z,862.23
2018-06-22T11:25:03.236Z,862.25
2018-06-22T11:26:03.021Z,862.32
2018-06-22T11:27:56.385Z,862.39
2018-06-22T11:28:56.361Z,862.39
2018-06-22T11:30:49.991Z,862.47
2018-06-22T11:31:49.707Z,862.49
2018-06-22T11:33:43.069Z,862.49
2018-06-22T11:34:43.077Z,862.53
2018-06-22T11:36:36.667Z,862.57
2018-06-22T11:37:36.418Z,862.57
2018-06-22T11:39:30.369Z,862.64
2018-06-22T11:40:29.770Z,862.64
2018-06-22T11:42:23.905Z,862.65
2018-06-22T11:43:23.129Z,862.66
2018-06-22T11:45:17.077Z,862.63
2018-06-22T11:46:16.478Z,862.66
2018-06-22T11:48:09.580Z,862.69
2018-06-22T11:49:09.348Z,862.71
2018-06-22T11:51:02.725Z,862.75
2018-06-22T11:52:02.679Z,862.76
2018-06-22T11:53:56.275Z,862.79
2018-06-22T11:54:56.031Z,862.82
2018-06-22T11:56:49.376Z,862.81
2018-06-22T11:57:49.394Z,862.74
2018-06-22T11:59:42.949Z,862.78
2018-06-22T12:00:42.734Z,862.81
2018-06-22T12:02:36.103Z,862.82
2018-06-22T12:03:36.068Z,862.86
2018-06-22T12:05:29.648Z,862.87
2018-06-22T12:06:29.416Z,862.88
2018-06-22T12:08:22.795Z,862.98
2018-06-22T12:09:22.791Z,862.97
2018-06-22T12:11:16.951Z,863.06
2018-06-22T12:12:16.138Z,863.08
2018-06-22T12:14:09.459Z,863.18
2018-06-22T12:15:09.471Z,863.22
2018-06-22T12:17:03.053Z,863.25
2018-06-22T12:18:02.817Z,863.28
2018-06-22T12:19:56.157Z,863.28
2018-06-22T12:20:56.166Z,863.37
2018-06-22T12:22:49.683Z,863.33
2018-06-22T12:23:49.547Z,863.31
2018-06-22T12:25:42.376Z,863.35
2018-06-22T12:26:42.382Z,863.32
2018-06-22T12:28:36.489Z,863.33
2018-06-22T12:29:35.722Z,863.30
2018-06-22T12:31:29.088Z,863.29
2018-06-22T12:32:29.084Z,863.25
2018-06-22T12:34:22.655Z,863.32
2018-06-22T12:35:22.435Z,863.33
2018-06-22T12:37:15.788Z,863.30
2018-06-22T12:38:15.774Z,863.32
2018-06-22T12:40:09.304Z,863.30
2018-06-22T12:41:09.112Z,863.31
2018-06-22T12:43:02.476Z,863.40
2018-06-22T12:44:02.485Z,863.39
2018-06-22T12:45:56.022Z,863.45
2018-06-22T12:46:55.812Z,863.44
2018-06-22T12:48:49.207Z,863.47
2018-06-22T12:49:49.177Z,863.52
2018-06-22T12:51:42.750Z,863.52
2018-06-22T12:52:42.530Z,863.49
2018-06-22T12:54:36.466Z,863.54
2018-06-22T12:55:35.846Z,863.51
2018-06-22T12:57:29.497Z,863.51
2018-06-22T12:58:29.191Z,863.50
2018-06-22T13:00:22.641Z,863.46
2018-06-22T13:01:22.569Z,863.47
2018-06-22T13:03:16.161Z,863.45
2018-06-22T13:04:15.898Z,863.44
2018-06-22T13:06:09.247Z,863.50
2018-06-22T13:07:09.238Z,863.51
2018-06-22T13:09:02.793Z,863.52
2018-06-22T13:10:02.601Z,863.52
2018-06-22T13:11:55.974Z,863.49
2018-06-22T13:12:55.951Z,863.47
2018-06-22T13:14:50.125Z,863.50
2018-06-22T13:15:49.304Z,863.52
2018-06-22T13:17:42.660Z,863.52
2018-06-22T13:18:42.634Z,863.49
2018-06-22T13:20:36.230Z,863.54
2018-06-22T13:21:35.992Z,863.57
2018-06-22T13:23:29.346Z,863.58
2018-06-22T13:24:29.342Z,863.59
2018-06-22T13:26:22.856Z,863.63
2018-06-22T13:27:22.671Z,863.62
2018-06-22T13:29:16.061Z,863.66
2018-06-22T13:30:16.044Z,863.61
2018-06-22T13:32:09.603Z,863.64
2018-06-22T13:33:09.387Z,863.65
2018-06-22T13:35:03.329Z,863.64
2018-06-22T13:36:02.741Z,863.67
2018-06-22T13:37:56.295Z,863.68
2018-06-22T13:38:56.066Z,863.71
2018-06-22T13:40:49.432Z,863.77
2018-06-22T13:41:49.427Z,863.73
2018-06-22T13:43:43.601Z,863.76
2018-06-22T13:44:42.759Z,863.78
2018-06-22T13:46:36.136Z,863.73
2018-06-22T13:47:36.126Z,863.75
2018-06-22T13:49:29.715Z,863.77
2018-06-22T13:50:29.450Z,863.74
2018-06-22T13:52:22.829Z,863.72
2018-06-22T13:53:22.820Z,863.72
2018-06-22T13:55:16.451Z,863.73
2018-06-22T13:56:16.147Z,863.76
2018-06-22T13:58:09.506Z,863.77
2018-06-22T13:59:09.497Z,863.73
2018-06-22T14:01:03.057Z,863.76
2018-06-22T14:02:02.838Z,863.77
2018-06-22T14:03:56.239Z,863.82
2018-06-22T14:04:56.217Z,863.83
2018-06-22T14:06:49.786Z,863.86
2018-06-22T14:07:49.566Z,863.90
2018-06-22T14:09:42.929Z,863.90
2018-06-22T14:10:42.888Z,863.91
2018-06-22T14:12:37.091Z,863.89
2018-06-22T14:13:36.258Z,863.96
2018-06-22T14:15:29.634Z,863.93
2018-06-22T14:16:29.594Z,863.94
2018-06-22T14:18:23.780Z,863.95
2018-06-22T14:19:22.940Z,863.92
2018-06-22T14:21:16.297Z,863.93
2018-06-22T14:22:16.306Z,863.91
2018-06-22T14:24:09.892Z,863.95
2018-06-22T14:25:09.677Z,863.93
2018-06-22T14:27:03.009Z,863.95
2018-06-22T14:28:02.994Z,863.95
2018-06-22T14:29:57.152Z,863.96
2018-06-22T14:30:56.374Z,863.95
2018-06-22T14:32:49.696Z,863.94
2018-06-22T14:33:49.713Z,863.97
2018-06-22T14:35:43.226Z,863.93
2018-06-22T14:36:43.087Z,863.96
2018-06-22T14:38:36.410Z,863.90
2018-06-22T14:39:36.379Z,863.93
2018-06-22T14:41:29.506Z,863.96
2018-06-22T14:42:29.266Z,863.98
2018-06-22T14:44:22.633Z,864.01
2018-06-22T14:45:22.603Z,864.04
2018-06-22T14:47:15.691Z,864.01
2018-06-22T14:48:15.473Z,864.01
2018-06-22T14:50:08.813Z,863.95
2018-06-22T14:51:08.827Z,864.00
2018-06-22T14:53:02.358Z,863.94
2018-06-22T14:54:02.172Z,863.93
2018-06-22T14:55:55.510Z,863.97
2018-06-22T14:56:55.513Z,863.95
2018-06-22T14:58:49.061Z,863.95
2018-06-22T14:59:48.848Z,863.95
2018-06-22T15:01:42.236Z,863.94
2018-06-22T15:02:42.207Z,863.90
2018-06-22T15:04:35.766Z,863.94
2018-06-22T15:05:35.565Z,863.90
2018-06-22T15:07:28.906Z,863.90
2018-06-22T15:08:28.907Z,863.92
2018-06-22T15:10:22.459Z,863.85
2018-06-22T15:11:22.266Z,863.89
2018-06-22T15:13:15.608Z,863.91
2018-06-22T15:14:15.581Z,863.86
2018-06-22T15:16:09.180Z,863.88
2018-06-22T15:17:08.929Z,863.91
2018-06-22T15:19:02.897Z,863.94
2018-06-22T15:20:02.279Z,863.96
2018-06-22T15:21:55.833Z,863.97
2018-06-22T15:22:55.645Z,863.96
2018-06-22T15:24:49.002Z,863.95
2018-06-22T15:25:48.984Z,863.93
2018-06-22T15:27:42.563Z,863.92
2018-06-22T15:28:42.332Z,863.97
2018-06-22T15:30:35.701Z,863.98
2018-06-22T15:31:35.457Z,863.98
2018-06-22T15:33:29.041Z,864.03
2018-06-22T15:34:28.826Z,864.03
2018-06-22T15:36:21.823Z,864.04
2018-06-22T15:37:22.142Z,864.04
2018-06-22T15:39:15.984Z,864.03
2018-06-22T15:40:15.203Z,864.06
2018-06-22T15:42:08.851Z,864.06
2018-06-22T15:43:08.533Z,864.05
2018-06-22T15:45:02.524Z,864.08
2018-06-22T15:46:02.196Z,864.06
2018-06-22T15:47:55.245Z,864.04
2018-06-22T15:48:55.225Z,864.06
2018-06-22T15:50:48.780Z,864.05
2018-06-22T15:51:48.572Z,864.04
2018-06-22T15:53:41.440Z,864.00
2018-06-22T15:54:41.775Z,863.97
2018-06-22T15:56:35.123Z,863.97
2018-06-22T15:57:34.789Z,863.97
2018-06-22T15:59:28.457Z,863.98
2018-06-22T16:00:28.129Z,864.00
2018-06-22T16:02:22.041Z,864.03
2018-06-22T16:03:21.482Z,864.09
2018-06-22T16:05:15.147Z,864.07
2018-06-22T16:06:15.139Z,864.06
2018-06-22T16:08:08.397Z,864.08
2018-06-22T16:09:08.511Z,864.07
2018-06-22T16:11:01.921Z,864.06
2018-06-22T16:12:01.512Z,864.10
2018-06-22T16:13:55.366Z,864.09
2018-06-22T16:14:55.183Z,864.08
2018-06-22T16:16:48.204Z,864.08
2018-06-22T16:17:48.186Z,864.05
2018-06-22T16:19:42.116Z,864.04
2018-06-22T16:20:41.874Z,864.02
2018-06-22T16:22:34.910Z,863.99
2018-06-22T16:23:34.917Z,863.94
2018-06-22T16:25:28.444Z,863.93
2018-06-22T16:26:28.261Z,863.96
2018-06-22T16:28:22.516Z,863.92
2018-06-22T16:29:21.600Z,863.90
2018-06-22T16:31:15.188Z,863.85
2018-06-22T16:32:15.346Z,863.82
2018-06-22T16:34:08.616Z,863.88
2018-06-22T16:35:08.627Z,863.83
2018-06-22T16:37:01.896Z,863.83
2018-06-22T16:38:01.629Z,863.86
2018-06-22T16:39:54.975Z,863.84
2018-06-22T16:40:55.320Z,863.81
2018-06-22T16:42:48.558Z,863.89
2018-06-22T16:43:48.350Z,863.88
2018-06-22T16:45:41.688Z,863.84
2018-06-22T16:46:41.657Z,863.83
2018-06-22T16:48:35.578Z,863.88
2018-06-22T16:49:35.362Z,863.89
2018-06-22T16:51:28.977Z,863.89
2018-06-22T16:52:28.367Z,863.86
2018-06-22T16:54:21.949Z,863.92
2018-06-22T16:55:21.718Z,863.87
2018-06-22T16:57:15.410Z,863.93
2018-06-22T16:58:15.064Z,863.98
2018-06-22T17:00:08.627Z,864.02
2018-06-22T17:01:08.744Z,864.06
2018-06-22T17:03:01.769Z,864.07
2018-06-22T17:04:01.741Z,864.12
2018-06-22T17:05:55.729Z,864.06
2018-06-22T17:06:55.424Z,864.08
2018-06-22T17:08:48.792Z,864.04
2018-06-22T17:09:48.862Z,864.04
2018-06-22T17:11:42.932Z,864.05
2018-06-22T17:12:42.132Z,864.07
2018-06-22T17:14:36.076Z,864.03
2018-06-22T17:15:35.129Z,864.06
2018-06-22T17:17:29.025Z,864.02
2018-06-22T17:18:28.494Z,864.08
2018-06-22T17:20:21.848Z,864.02
2018-06-22T17:21:22.167Z,864.03
2018-06-22T17:23:15.732Z,864.10
2018-06-22T17:24:15.183Z,864.05
2018-06-22T17:26:08.548Z,864.06
2018-06-22T17:27:08.870Z,864.07
2018-06-22T17:29:02.090Z,864.04
2018-06-22T17:30:01.890Z,864.03
2018-06-22T17:31:55.231Z,863.95
2018-06-22T17:32:55.571Z,863.96
2018-06-22T17:34:48.810Z,863.94
2018-06-22T17:35:48.579Z,863.94
2018-06-22T17:37:42.258Z,863.98
2018-06-22T17:38:41.927Z,863.98
2018-06-22T17:40:35.513Z,864.01
2018-06-22T17:41:35.599Z,864.07
2018-06-22T17:43:28.611Z,864.05
2018-06-22T17:44:28.626Z,864.07
2018-06-22T17:46:22.311Z,864.08
2018-06-22T17:47:22.288Z,864.09
2018-06-22T17:49:15.307Z,864.10
2018-06-22T17:50:15.635Z,864.09
2018-06-22T17:52:09.213Z,864.05
2018-06-22T17:53:08.993Z,864.05
2018-06-22T17:55:02.348Z,864.04
2018-06-22T17:56:02.325Z,864.03
2018-06-22T17:57:55.590Z,864.05
2018-06-22T17:58:55.692Z,864.02
2018-06-22T18:00:49.053Z,864.03
2018-06-22T18:01:48.688Z,864.05
2018-06-22T18:03:42.610Z,864.06
2018-06-22T18:04:42.062Z,864.11
2018-06-22T18:06:36.010Z,864.15
2018-06-22T18:07:35.738Z,864.18
2018-06-22T18:09:28.979Z,864.24
2018-06-22T18:10:28.752Z,864.25
2018-06-22T18:12:22.438Z,864.24
2018-06-22T18:13:22.415Z,864.21
2018-06-22T18:15:16.017Z,864.24
2018-06-22T18:16:15.419Z,864.23
2018-06-22T18:18:09.131Z,864.28
2018-06-22T18:19:09.118Z,864.27
2018-06-22T18:21:02.953Z,864.26
2018-06-22T18:22:02.122Z,864.28
2018-06-22T18:23:55.492Z,864.25
2018-06-22T18:24:55.817Z,864.18
2018-06-22T18:26:49.053Z,864.18
2018-06-22T18:27:49.157Z,864.19
2018-06-22T18:29:42.186Z,864.19
2018-06-22T18:30:42.173Z,864.21
2018-06-22T18:32:35.736Z,864.21
2018-06-22T18:33:35.863Z,864.22
2018-06-22T18:35:29.794Z,864.16
2018-06-22T18:36:28.869Z,864.15
2018-06-22T18:38:23.361Z,864.15
2018-06-22T18:39:22.198Z,864.13
2018-06-22T18:41:15.571Z,864.14
2018-06-22T18:42:15.561Z,864.15
2018-06-22T18:44:09.768Z,864.21
2018-06-22T18:45:09.229Z,864.19
2018-06-22T18:47:02.881Z,864.23
2018-06-22T18:48:02.235Z,864.18
2018-06-22T18:49:55.789Z,864.12
2018-06-22T18:50:55.944Z,864.14
2018-06-22T18:52:49.868Z,864.16
2018-06-22T18:53:48.951Z,864.17
2018-06-22T18:55:42.491Z,864.17
2018-06-22T18:56:42.334Z,864.21
2018-06-22T18:58:35.962Z,864.27
2018-06-22T18:59:35.649Z,864.29
2018-06-22T19:01:29.560Z,864.30
2018-06-22T19:02:29.316Z,864.32
2018-06-22T19:04:22.933Z,864.32
2018-06-22T19:05:22.651Z,864.33
2018-06-22T19:07:16.183Z,864.30
2018-06-22T19:08:15.987Z,864.29
2018-06-22T19:10:09.962Z,864.25
2018-06-22T19:11:09.025Z,864.28
2018-06-22T19:13:02.585Z,864.24
2018-06-22T19:14:02.355Z,864.25
2018-06-22T19:15:56.320Z,864.22
2018-06-22T19:16:55.713Z,864.23
2018-06-22T19:18:49.706Z,864.27
2018-06-22T19:19:49.053Z,864.23
2018-06-22T19:21:42.430Z,864.23
2018-06-22T19:22:42.754Z,864.24
2018-06-22T19:24:35.971Z,864.22
2018-06-22T19:25:36.080Z,864.21
2018-06-22T19:27:29.117Z,864.23
2018-06-22T19:28:29.102Z,864.24
2018-06-22T19:30:23.023Z,864.25
2018-06-22T19:31:22.468Z,864.29
2018-06-22T19:33:15.814Z,864.29
2018-06-22T19:34:15.794Z,864.24
2018-06-22T19:36:09.548Z,864.28
2018-06-22T19:37:09.485Z,864.28
2018-06-22T19:39:02.508Z,864.26
2018-06-22T19:40:02.817Z,864.27
2018-06-22T19:41:56.407Z,864.24
2018-06-22T19:42:55.842Z,864.23
2018-06-22T19:44:49.188Z,864.26
2018-06-22T19:45:49.176Z,864.26
2018-06-22T19:47:42.762Z,864.27
2018-06-22T19:48:42.544Z,864.28
2018-06-22T19:50:36.212Z,864.28
2018-06-22T19:51:35.872Z,864.25
2018-06-22T19:53:29.436Z,864.30
2018-06-22T19:54:29.224Z,864.31
2018-06-22T19:56:22.919Z,864.33
2018-06-22T19:57:22.561Z,864.30
2018-06-22T19:59:16.498Z,864.32
2018-06-22T20:00:15.930Z,864.30
2018-06-22T20:02:09.301Z,864.27
2018-06-22T20:03:09.593Z,864.25
2018-06-22T20:05:03.762Z,864.20
2018-06-22T20:06:02.628Z,864.22
2018-06-22T20:07:56.320Z,864.27
2018-06-22T20:08:56.343Z,864.22
2018-06-22T20:10:49.829Z,864.24
2018-06-22T20:11:49.652Z,864.24
2018-06-22T20:13:42.671Z,864.19
2018-06-22T20:14:42.667Z,864.18
2018-06-22T20:16:36.516Z,864.17
2018-06-22T20:17:36.328Z,864.20
2018-06-22T20:19:30.300Z,864.21
2018-06-22T20:20:29.672Z,864.16
2018-06-22T20:22:23.248Z,864.21
2018-06-22T20:23:22.688Z,864.18
2018-06-22T20:25:16.061Z,864.21
2018-06-22T20:26:16.055Z,864.17
2018-06-22T20:28:09.585Z,864.18
2018-06-22T20:29:09.714Z,864.17
2018-06-22T20:31:02.739Z,864.14
2018-06-22T20:32:03.076Z,864.13
2018-06-22T20:33:56.320Z,864.08
2018-06-22T20:34:56.407Z,864.10
2018-06-22T20:36:50.045Z,864.12
2018-06-22T20:37:49.775Z,864.06
2018-06-22T20:39:43.926Z,864.05
2018-06-22T20:40:55.499Z,864.07
2018-06-22T20:42:36.125Z,864.03
2018-06-22T20:43:36.135Z,864.02
2018-06-22T20:45:30.033Z,864.06
2018-06-22T20:46:29.806Z,864.05
2018-06-22T20:48:23.402Z,864.10
2018-06-22T20:49:22.827Z,864.10
2018-06-22T20:51:16.726Z,864.12
2018-06-22T20:52:16.162Z,864.15
2018-06-22T20:54:09.513Z,864.11
2018-06-22T20:55:09.527Z,864.12
2018-06-22T20:57:03.427Z,864.09
2018-06-22T20:58:02.838Z,864.09
2018-06-22T20:59:56.550Z,864.07
2018-06-22T21:00:56.188Z,864.07
2018-06-22T21:02:49.848Z,864.07
2018-06-22T21:03:49.552Z,864.12
2018-06-22T21:05:42.882Z,864.18
2018-06-22T21:06:42.894Z,864.21
2018-06-22T21:08:36.437Z,864.22
2018-06-22T21:09:36.245Z,864.24
2018-06-22T21:11:29.609Z,864.22
2018-06-22T21:12:40.408Z,864.22
2018-06-22T21:14:23.160Z,864.26
2018-06-22T21:15:22.933Z,864.28
2018-06-22T21:17:16.373Z,864.30
2018-06-22T21:18:15.801Z,864.29
2018-06-22T21:20:09.703Z,864.34
2018-06-22T21:21:09.465Z,864.33
2018-06-22T21:23:02.482Z,864.37
2018-06-22T21:24:02.473Z,864.36
2018-06-22T21:25:56.103Z,864.39
2018-06-22T21:26:56.157Z,864.40
2018-06-22T21:28:49.533Z,864.36
2018-06-22T21:29:49.166Z,864.34
2018-06-22T21:31:43.105Z,864.35
2018-06-22T21:32:42.853Z,864.36
2018-06-22T21:34:35.884Z,864.36
2018-06-22T21:35:35.879Z,864.39
2018-06-22T21:37:29.511Z,864.39
2018-06-22T21:38:29.228Z,864.39
2018-06-22T21:40:22.676Z,864.43
2018-06-22T21:41:22.887Z,864.42
2018-06-22T21:43:16.152Z,864.43
2018-06-22T21:44:16.225Z,864.39
2018-06-22T21:46:09.863Z,864.42
2018-06-22T21:47:09.263Z,864.43
2018-06-22T21:49:03.740Z,864.40
2018-06-22T21:50:02.933Z,864.37
2018-06-22T21:51:56.900Z,864.38
2018-06-22T21:52:56.405Z,864.39
2018-06-22T21:55:06.803Z,864.37
2018-06-22T21:55:49.645Z,864.38
2018-06-22T21:57:42.650Z,864.40
2018-06-22T21:58:42.648Z,864.43
2018-06-22T22:00:36.540Z,864.47
2018-06-22T22:01:36.348Z,864.45
2018-06-22T22:03:29.424Z,864.51
2018-06-22T22:04:29.659Z,864.49
2018-06-22T22:06:23.231Z,864.46
2018-06-22T22:07:22.709Z,864.45
2018-06-22T22:09:16.369Z,864.45
2018-06-22T22:10:16.352Z,864.46
2018-06-22T22:12:10.036Z,864.47
2018-06-22T22:13:09.362Z,864.45
2018-06-22T22:15:03.652Z,864.47
2018-06-22T22:16:03.048Z,864.52
2018-06-22T22:17:56.297Z,864.52
2018-06-22T22:18:56.392Z,864.51
2018-06-22T22:20:49.435Z,864.50
2018-06-22T22:21:49.440Z,864.50
2018-06-22T22:23:43.342Z,864.52
2018-06-22T22:24:42.765Z,864.53
2018-06-22T22:26:36.454Z,864.48
2018-06-22T22:27:36.442Z,864.52
2018-06-22T22:29:30.291Z,864.57
2018-06-22T22:30:29.455Z,864.55
2018-06-22T22:32:23.140Z,864.63
2018-06-22T22:33:23.132Z,864.62
2018-06-22T22:35:16.375Z,864.60
2018-06-22T22:36:16.478Z,864.55
2018-06-22T22:38:09.604Z,864.59
2018-06-22T22:39:09.825Z,864.55
2018-06-22T22:41:03.407Z,864.57
2018-06-22T22:42:02.856Z,864.60
2018-06-22T22:43:56.525Z,864.59
2018-06-22T22:44:56.199Z,864.59
2018-06-22T22:46:50.691Z,864.66
2018-06-22T22:47:49.864Z,864.69
2018-06-22T22:49:43.217Z,864.72
2018-06-22T22:50:43.215Z,864.69
2018-06-22T22:52:36.480Z,864.71
2018-06-22T22:53:36.218Z,864.70
2018-06-22T22:55:29.568Z,864.73
2018-06-22T22:56:29.905Z,864.77
2018-06-22T22:58:23.165Z,864.80
2018-06-22T22:59:22.923Z,864.81
2018-06-22T23:01:16.906Z,864.82
2018-06-22T23:02:16.281Z,864.82
2018-06-22T23:04:10.183Z,864.88
2018-06-22T23:05:09.604Z,864.87
2018-06-22T23:07:03.886Z,864.91
2018-06-22T23:08:18.916Z,864.92
2018-06-22T23:09:56.513Z,864.95
2018-06-22T23:10:56.307Z,865.01
2018-06-22T23:12:49.990Z,864.98
2018-06-22T23:13:49.662Z,865.04
2018-06-22T23:15:43.667Z,865.07
2018-06-22T23:16:43.323Z,865.07
2018-06-22T23:18:36.957Z,865.09
2018-06-22T23:19:36.673Z,865.06
2018-06-22T23:21:30.373Z,865.08
2018-06-22T23:22:29.706Z,865.07
2018-06-22T23:24:23.054Z,865.06
2018-06-22T23:25:23.357Z,865.08
2018-06-22T23:27:16.581Z,865.10
2018-06-22T23:28:16.394Z,865.14
2018-06-22T23:30:09.738Z,865.14
2018-06-22T23:31:09.749Z,865.11